Airfield :
LOGIN :

Register | Disclaimer

   EN    FR    IT 

 










Legend :    VFR   Marginal VFR   IFR   Intensive IFR   Very Intensive IFR
Visi :
Ceiling :
>= 8 km
>= 3000ft
5 to 8 km
1000 to 3000 ft
1500m to 5 km
500 to 1000 ft
800 to 1500m
200 to 500 ft
< 800m
< 200 ft
Symbols :   Thunderstorms  Fog  Heavy snow  Heavy precipitations  Wind > 20 kt
SIGMETs :     Misc.  Thunderstorms  Icing  Turbulence  Mountain Waves  Volcanic Ashes






- Airport Elevation : 407 ft


EGDM - MoD Boscombe Down Amesbury

CURRENT METAR :
  • 241750Z 26018KT 9999 BKN017 OVC030 10/07 Q1005 RMK WHT

EXPIRED METARs :
  • 241720Z 26022KT 9999 BKN018 SCT031 BKN180 11/07 Q1005 NOSIG RMK WHT WHT
  • 241650Z 26019KT 9999 BKN017 SCT030 BKN200 11/09 Q1005 NOSIG RMK WHT WHT
  • 241621Z 26023KT 9999 BKN015 BKN030 BKN250 11/09 Q1005 NOSIG RMK WHT WHT
  • 241550Z 25021KT 9999 FEW008 BKN013 BKN020 11/10 Q1005 BECMG BKN015 RMK GRN BECMG WHT
  • 241520Z 24017KT 9999 BKN008 OVC015 11/10 Q1005 TEMPO 6000 -RADZ RMK GRN TEMPO GRN

TAF COR TAF EGDM
Valid from the 24 at 15:00 until the 24 at 19:00 UTC


241420Z 2415/2419 24018G28KT 9999 BKN009
TEMPO 2415/2417 6000 -RA
PROB40
TEMPO 2415/2417 3500 RADZ BKN006
BECMG 2416/2419 27015G25KT BKN025



MET'MAP, your aeronautical weather chart ! - Copyright ORBIFLY December 2007 - Disclaimer

ORBIFLY MET'MAP TEAM :

Programming & Development : Alexandra Zaïnal
Concept & original design : Baudouin d'Aumeries
Assistance for programming : Marc-Olivier Méhu
Technical & hardware support : Manuel Goepfert

Contact : metmap@orbifly.com




SOURCES & CREDITS :

   NOAA